createdAt,value
2022-10-22T00:01:15.704Z,13.71
2022-10-22T00:03:42.125Z,13.69
2022-10-22T00:06:08.552Z,13.67
2022-10-22T00:08:35.021Z,13.68
2022-10-22T00:11:08.926Z,13.72
2022-10-22T00:13:35.373Z,13.75
2022-10-22T00:16:01.776Z,13.74
2022-10-22T00:18:28.169Z,13.76
2022-10-22T00:20:54.545Z,13.75
2022-10-22T00:23:21.099Z,13.75
2022-10-22T00:25:47.613Z,13.79
2022-10-22T00:28:14.016Z,13.79
2022-10-22T00:30:40.475Z,13.79
2022-10-22T00:33:06.861Z,13.80
2022-10-22T00:35:33.354Z,13.82
2022-10-22T00:37:59.742Z,13.80
2022-10-22T00:40:26.141Z,13.80
2022-10-22T00:42:52.522Z,13.80
2022-10-22T00:45:21.421Z,13.80
2022-10-22T00:48:01.615Z,13.79
2022-10-22T00:50:34.062Z,13.78
2022-10-22T00:53:00.438Z,13.78
2022-10-22T00:55:27.070Z,13.77
2022-10-22T00:57:54.201Z,13.78
2022-10-22T01:00:21.141Z,13.79
2022-10-22T01:02:48.680Z,13.78
2022-10-22T01:05:15.205Z,13.80
2022-10-22T01:07:45.166Z,13.79
2022-10-22T01:10:26.384Z,13.76
2022-10-22T01:13:15.333Z,13.73
2022-10-22T01:15:57.453Z,13.63
2022-10-22T01:18:37.895Z,13.66
2022-10-22T01:21:22.388Z,13.62
2022-10-22T01:23:57.699Z,13.60
2022-10-22T01:26:57.269Z,13.55
2022-10-22T01:29:35.780Z,13.47
2022-10-22T01:32:05.379Z,13.42
2022-10-22T01:34:31.619Z,13.38
2022-10-22T01:36:58.003Z,13.29
2022-10-22T01:39:24.384Z,13.24
2022-10-22T01:41:50.787Z,13.24
2022-10-22T01:47:32.345Z,13.12
2022-10-22T01:50:32.271Z,13.04
2022-10-22T01:53:17.675Z,13.06
2022-10-22T01:56:05.433Z,13.05
2022-10-22T01:58:34.827Z,13.01
2022-10-22T02:01:19.513Z,12.97
2022-10-22T02:04:32.357Z,12.95
2022-10-22T02:07:00.891Z,12.89
2022-10-22T02:09:27.994Z,12.84
2022-10-22T02:11:54.431Z,12.80
2022-10-22T02:14:21.107Z,12.78
2022-10-22T02:16:48.059Z,12.74
2022-10-22T02:19:37.911Z,12.72
2022-10-22T02:22:04.503Z,12.69
2022-10-22T02:24:30.991Z,12.65
2022-10-22T02:27:03.304Z,12.63
2022-10-22T02:29:50.321Z,12.58
2022-10-22T02:32:19.855Z,12.55
2022-10-22T02:34:46.247Z,12.52
2022-10-22T02:37:12.859Z,12.52
2022-10-22T02:39:39.283Z,12.48
2022-10-22T02:42:05.699Z,12.46
2022-10-22T02:44:32.124Z,12.44
2022-10-22T02:46:58.538Z,12.43
2022-10-22T02:49:24.938Z,12.44
2022-10-22T02:51:51.311Z,12.40
2022-10-22T02:54:17.687Z,12.33
2022-10-22T02:56:44.069Z,12.30
2022-10-22T02:59:10.466Z,12.28
2022-10-22T03:01:36.872Z,12.26
2022-10-22T03:04:03.408Z,12.25
2022-10-22T03:06:29.805Z,12.23
2022-10-22T03:08:56.238Z,12.22
2022-10-22T03:11:22.635Z,12.20
2022-10-22T03:13:49.007Z,12.19
2022-10-22T03:16:15.392Z,12.16
2022-10-22T03:18:41.768Z,12.17
2022-10-22T03:21:12.338Z,12.19
2022-10-22T03:23:39.846Z,12.24
2022-10-22T03:26:06.241Z,12.31
2022-10-22T03:28:33.075Z,12.31
2022-10-22T03:30:59.484Z,12.35
2022-10-22T03:33:25.863Z,12.35
2022-10-22T03:35:52.286Z,12.35
2022-10-22T03:38:18.660Z,12.37
2022-10-22T03:40:45.061Z,12.39
2022-10-22T03:43:11.443Z,12.44
2022-10-22T03:48:09.223Z,12.46
2022-10-22T03:50:35.638Z,12.51
2022-10-22T03:53:02.016Z,12.56
2022-10-22T03:55:28.442Z,12.60
2022-10-22T03:57:54.834Z,12.65
2022-10-22T04:00:21.290Z,12.64
2022-10-22T04:02:47.679Z,12.67
2022-10-22T04:07:45.389Z,12.72
2022-10-22T04:10:11.775Z,12.75
2022-10-22T04:12:38.217Z,12.74
2022-10-22T04:15:05.020Z,12.74
2022-10-22T04:17:37.837Z,12.76
2022-10-22T04:20:04.754Z,12.75
2022-10-22T04:22:33.688Z,12.73
2022-10-22T04:25:00.060Z,12.74
2022-10-22T04:27:30.011Z,12.75
2022-10-22T04:29:56.376Z,12.79
2022-10-22T04:32:22.763Z,12.79
2022-10-22T04:34:49.128Z,12.77
2022-10-22T04:37:15.524Z,12.77
2022-10-22T04:39:41.907Z,12.82
2022-10-22T04:42:08.304Z,12.80
2022-10-22T04:44:34.773Z,12.82
2022-10-22T04:47:01.237Z,12.84
2022-10-22T04:49:27.667Z,12.83
2022-10-22T04:51:54.077Z,12.81
2022-10-22T04:54:20.485Z,12.79
2022-10-22T04:56:46.880Z,12.79
2022-10-22T04:59:13.395Z,12.78
2022-10-22T05:01:42.978Z,12.77
2022-10-22T05:04:14.173Z,12.77
2022-10-22T05:06:40.587Z,12.76
2022-10-22T05:09:08.501Z,12.73
2022-10-22T05:11:36.064Z,12.72
2022-10-22T05:14:04.040Z,12.73
2022-10-22T05:16:30.589Z,12.74
2022-10-22T05:18:58.325Z,12.72
2022-10-22T05:21:24.726Z,12.72
2022-10-22T05:23:51.174Z,12.71
2022-10-22T05:26:19.156Z,12.70
2022-10-22T05:28:46.567Z,12.70
2022-10-22T05:31:13.452Z,12.68
2022-10-22T05:33:40.078Z,12.64
2022-10-22T05:36:07.612Z,12.62
2022-10-22T05:38:34.460Z,12.61
2022-10-22T05:41:08.773Z,12.62
2022-10-22T05:43:35.358Z,12.62
2022-10-22T05:46:03.030Z,12.59
2022-10-22T05:48:29.478Z,12.56
2022-10-22T05:50:55.873Z,12.53
2022-10-22T05:53:23.375Z,12.57
2022-10-22T05:55:49.762Z,12.56
2022-10-22T05:58:16.173Z,12.53
2022-10-22T06:00:42.578Z,12.51
2022-10-22T06:03:09.056Z,12.49
2022-10-22T06:05:36.331Z,12.47
2022-10-22T06:08:02.705Z,12.46
2022-10-22T06:10:29.085Z,12.49
2022-10-22T06:12:55.465Z,12.46
2022-10-22T06:15:21.855Z,12.46
2022-10-22T06:17:48.245Z,12.43
2022-10-22T06:20:14.724Z,12.43
2022-10-22T06:22:41.282Z,12.42
2022-10-22T06:25:08.129Z,12.40
2022-10-22T06:27:34.780Z,12.37
2022-10-22T06:30:01.180Z,12.37
2022-10-22T06:32:27.558Z,12.36
2022-10-22T06:34:53.958Z,12.38
2022-10-22T06:37:20.361Z,12.37
2022-10-22T06:39:46.804Z,12.37
2022-10-22T06:42:13.225Z,12.33
2022-10-22T06:44:39.970Z,12.30
2022-10-22T06:47:06.347Z,12.32
2022-10-22T06:49:32.785Z,12.33
2022-10-22T06:51:59.170Z,12.33
2022-10-22T06:54:25.619Z,12.33
2022-10-22T06:56:52.048Z,12.31
2022-10-22T06:59:18.494Z,12.33
2022-10-22T07:01:45.064Z,12.29
2022-10-22T07:04:11.610Z,12.28
2022-10-22T07:06:38.080Z,12.33
2022-10-22T07:09:04.573Z,12.38
2022-10-22T07:11:41.761Z,12.41
2022-10-22T07:14:08.449Z,12.43
2022-10-22T07:16:34.901Z,12.46
2022-10-22T07:19:01.954Z,12.47
2022-10-22T07:21:28.548Z,12.49
2022-10-22T07:23:54.949Z,12.49
2022-10-22T07:26:21.818Z,12.51
2022-10-22T07:28:48.322Z,12.56
2022-10-22T07:31:15.145Z,12.57
2022-10-22T07:33:41.540Z,12.63
2022-10-22T07:36:10.802Z,12.68
2022-10-22T07:38:37.179Z,12.73
2022-10-22T07:41:03.743Z,12.75
2022-10-22T07:43:30.171Z,12.83
2022-10-22T07:45:56.608Z,12.92
2022-10-22T07:48:23.425Z,12.97
2022-10-22T07:50:50.473Z,13.01
2022-10-22T07:53:16.982Z,13.09
2022-10-22T07:55:43.386Z,13.19
2022-10-22T07:58:09.761Z,13.25
2022-10-22T08:00:36.251Z,13.32
2022-10-22T08:03:05.457Z,13.39
2022-10-22T08:05:32.176Z,13.46
2022-10-22T08:07:58.838Z,13.52
2022-10-22T08:10:25.208Z,13.59
2022-10-22T08:12:51.599Z,13.67
2022-10-22T08:15:18.027Z,13.75
2022-10-22T08:17:44.575Z,13.81
2022-10-22T08:20:11.463Z,13.83
2022-10-22T08:22:37.860Z,13.85
2022-10-22T08:25:04.659Z,13.84
2022-10-22T08:27:31.062Z,13.90
2022-10-22T08:29:57.476Z,13.95
2022-10-22T08:32:24.026Z,13.96
2022-10-22T08:34:50.446Z,14.07
2022-10-22T08:37:16.867Z,14.12
2022-10-22T08:39:43.977Z,14.15
2022-10-22T08:42:37.248Z,14.20
2022-10-22T08:45:20.222Z,14.29
2022-10-22T08:48:02.691Z,14.32
2022-10-22T08:50:41.628Z,14.35
2022-10-22T08:53:12.924Z,14.34
2022-10-22T08:55:40.097Z,14.36
2022-10-22T08:58:09.437Z,14.36
2022-10-22T09:00:46.898Z,14.34
2022-10-22T09:03:37.752Z,14.40
2022-10-22T09:06:09.903Z,14.43
2022-10-22T09:08:36.902Z,14.50
2022-10-22T09:11:13.586Z,14.59
2022-10-22T09:13:40.862Z,14.63
2022-10-22T09:16:21.699Z,14.71
2022-10-22T09:19:13.213Z,14.65
2022-10-22T09:21:58.669Z,14.70
2022-10-22T09:24:34.211Z,14.73
2022-10-22T09:27:01.209Z,14.77
2022-10-22T09:29:33.972Z,14.80
2022-10-22T09:32:00.520Z,14.87
2022-10-22T09:34:26.898Z,14.90
2022-10-22T09:37:00.911Z,14.94
2022-10-22T09:39:29.075Z,14.97
2022-10-22T09:41:55.477Z,15.04
2022-10-22T09:44:21.933Z,15.08
2022-10-22T09:46:48.361Z,15.12
2022-10-22T09:49:16.464Z,15.17
2022-10-22T09:51:57.010Z,15.29
2022-10-22T09:54:33.450Z,15.37
2022-10-22T09:57:24.068Z,15.42
2022-10-22T09:59:51.229Z,15.45
2022-10-22T10:02:37.510Z,15.50
2022-10-22T10:05:05.729Z,15.55
2022-10-22T10:07:32.668Z,15.56
2022-10-22T10:09:59.069Z,15.58
2022-10-22T10:12:43.439Z,15.63
2022-10-22T10:15:29.910Z,15.75
2022-10-22T10:18:33.140Z,15.81
2022-10-22T10:21:10.024Z,15.83
2022-10-22T10:23:45.781Z,15.83
2022-10-22T10:26:18.339Z,15.86
2022-10-22T10:28:47.722Z,15.91
2022-10-22T10:31:23.425Z,15.94
2022-10-22T10:33:52.716Z,15.97
2022-10-22T10:36:51.699Z,16.03
2022-10-22T10:39:33.457Z,16.08
2022-10-22T10:42:06.180Z,16.16
2022-10-22T10:44:37.159Z,16.18
2022-10-22T10:47:19.806Z,16.21
2022-10-22T10:49:46.679Z,16.26
2022-10-22T10:52:36.715Z,16.32
2022-10-22T10:55:42.001Z,16.35
2022-10-22T10:58:42.996Z,16.43
2022-10-22T11:01:16.066Z,16.47
2022-10-22T11:04:02.227Z,16.53
2022-10-22T11:06:28.659Z,16.59
2022-10-22T11:08:58.246Z,16.68
2022-10-22T11:11:40.993Z,16.79
2022-10-22T11:14:26.474Z,16.85
2022-10-22T11:17:01.376Z,16.94
2022-10-22T11:19:52.327Z,16.94
2022-10-22T11:22:29.439Z,16.97
2022-10-22T11:25:16.210Z,17.09
2022-10-22T11:27:47.729Z,17.13
2022-10-22T11:30:22.629Z,17.21
2022-10-22T11:32:53.537Z,17.26
2022-10-22T11:35:25.856Z,17.28
2022-10-22T11:38:01.744Z,17.37
2022-10-22T11:40:38.440Z,17.46
2022-10-22T11:43:06.609Z,17.56
2022-10-22T11:45:41.002Z,17.67
2022-10-22T11:48:14.858Z,17.75
2022-10-22T11:50:41.127Z,17.82
2022-10-22T11:53:13.647Z,17.92
2022-10-22T11:55:39.948Z,17.95
2022-10-22T11:58:30.712Z,17.90
2022-10-22T12:00:58.762Z,17.90
2022-10-22T12:03:37.849Z,18.00
2022-10-22T12:06:09.909Z,18.05
2022-10-22T12:08:36.375Z,18.09
2022-10-22T12:11:12.610Z,18.06
2022-10-22T12:14:16.052Z,17.95
2022-10-22T12:16:58.121Z,17.81
2022-10-22T12:19:27.294Z,17.63
2022-10-22T12:21:57.545Z,17.53
2022-10-22T12:24:24.422Z,17.41
2022-10-22T12:26:50.808Z,17.30
2022-10-22T12:29:17.248Z,17.26
2022-10-22T12:31:44.447Z,17.24
2022-10-22T12:34:17.173Z,17.31
2022-10-22T12:36:43.935Z,17.31
2022-10-22T12:39:13.469Z,17.28
2022-10-22T12:41:39.740Z,17.24
2022-10-22T12:44:06.318Z,17.24
2022-10-22T12:46:35.530Z,17.34
2022-10-22T12:49:03.488Z,17.45
2022-10-22T12:51:29.865Z,17.72
2022-10-22T12:53:59.918Z,17.98
2022-10-22T12:56:31.571Z,18.62
2022-10-22T12:59:00.267Z,19.24
2022-10-22T13:01:34.061Z,18.90
2022-10-22T13:04:17.140Z,18.76
2022-10-22T13:06:44.523Z,18.68
2022-10-22T13:09:25.155Z,18.52
2022-10-22T13:12:02.728Z,18.30
2022-10-22T13:14:32.453Z,18.13
2022-10-22T13:17:18.106Z,18.03
2022-10-22T13:19:53.519Z,17.91
2022-10-22T13:22:35.737Z,17.86
2022-10-22T13:25:18.150Z,17.92
2022-10-22T13:27:48.150Z,18.07
2022-10-22T13:30:25.684Z,18.26
2022-10-22T13:32:56.566Z,18.49
2022-10-22T13:35:27.766Z,18.63
2022-10-22T13:37:54.290Z,18.60
2022-10-22T13:40:20.925Z,18.49
2022-10-22T13:42:47.398Z,18.38
2022-10-22T13:45:13.842Z,18.27
2022-10-22T13:47:40.295Z,18.20
2022-10-22T13:50:12.836Z,18.11
2022-10-22T13:52:41.541Z,18.01
2022-10-22T13:55:17.235Z,17.93
2022-10-22T13:57:43.747Z,17.83
2022-10-22T14:00:17.997Z,17.82
2022-10-22T14:02:48.026Z,17.84
2022-10-22T14:05:15.359Z,17.99
2022-10-22T14:07:42.015Z,18.04
2022-10-22T14:10:23.928Z,18.07
2022-10-22T14:12:53.390Z,18.03
2022-10-22T14:15:23.483Z,18.07
2022-10-22T14:17:53.989Z,18.01
2022-10-22T14:20:21.719Z,17.91
2022-10-22T14:22:48.819Z,17.83
2022-10-22T14:25:25.278Z,17.73
2022-10-22T14:27:54.669Z,17.67
2022-10-22T14:30:24.703Z,17.65
2022-10-22T14:32:51.157Z,17.61
2022-10-22T14:35:19.712Z,17.61
2022-10-22T14:37:46.289Z,17.55
2022-10-22T14:40:14.061Z,17.45
2022-10-22T14:42:41.943Z,17.35
2022-10-22T14:45:22.526Z,17.29
2022-10-22T14:47:49.661Z,17.17
2022-10-22T14:50:16.511Z,17.08
2022-10-22T14:52:44.239Z,17.07
2022-10-22T14:55:15.093Z,17.04
2022-10-22T14:57:41.849Z,17.03
2022-10-22T15:00:17.703Z,17.03
2022-10-22T15:02:45.593Z,16.95
2022-10-22T15:05:12.046Z,16.90
2022-10-22T15:07:41.183Z,16.80
2022-10-22T15:10:08.382Z,16.70
2022-10-22T15:12:34.824Z,16.67
2022-10-22T15:15:01.262Z,16.58
2022-10-22T15:17:27.649Z,16.51
2022-10-22T15:19:54.043Z,16.47
2022-10-22T15:22:20.438Z,16.43
2022-10-22T15:24:46.961Z,16.44
2022-10-22T15:27:13.527Z,16.43
2022-10-22T15:29:40.498Z,16.40
2022-10-22T15:32:06.907Z,16.38
2022-10-22T15:34:34.446Z,16.37
2022-10-22T15:37:04.531Z,16.36
2022-10-22T15:39:31.013Z,16.32
2022-10-22T15:41:58.716Z,16.28
2022-10-22T15:44:26.727Z,16.21
2022-10-22T15:46:53.275Z,16.15
2022-10-22T15:49:19.671Z,16.06
2022-10-22T15:51:46.131Z,16.03
2022-10-22T15:54:20.767Z,15.99
2022-10-22T15:56:47.201Z,15.93
2022-10-22T15:59:14.573Z,15.86
2022-10-22T16:01:41.031Z,15.84
2022-10-22T16:04:07.527Z,15.81
2022-10-22T16:06:35.504Z,15.80
2022-10-22T16:09:03.424Z,15.80
2022-10-22T16:11:30.577Z,15.73
2022-10-22T16:13:57.455Z,15.67
2022-10-22T16:16:24.573Z,15.65
2022-10-22T16:18:51.210Z,15.63
2022-10-22T16:21:17.841Z,15.62
2022-10-22T16:23:44.449Z,15.61
2022-10-22T16:26:11.150Z,15.62
2022-10-22T16:28:37.542Z,15.59
2022-10-22T16:31:06.092Z,15.55
2022-10-22T16:33:41.217Z,15.52
2022-10-22T16:36:11.686Z,15.48
2022-10-22T16:38:38.298Z,15.47
2022-10-22T16:41:11.684Z,15.46
2022-10-22T16:43:39.937Z,15.44
2022-10-22T16:46:06.712Z,15.43
2022-10-22T16:48:33.373Z,15.44
2022-10-22T16:51:00.099Z,15.41
2022-10-22T16:53:31.274Z,15.43
2022-10-22T16:55:57.779Z,15.42
2022-10-22T16:58:24.166Z,15.40
2022-10-22T17:00:50.569Z,15.41
2022-10-22T17:03:17.001Z,15.40
2022-10-22T17:05:43.389Z,15.40
2022-10-22T17:08:09.787Z,15.40
2022-10-22T17:10:36.534Z,15.38
2022-10-22T17:13:03.846Z,15.34
2022-10-22T17:15:30.508Z,15.33
2022-10-22T17:17:58.959Z,15.29
2022-10-22T17:20:25.315Z,15.23
2022-10-22T17:22:51.719Z,15.16
2022-10-22T17:25:25.375Z,15.11
2022-10-22T17:27:51.919Z,15.09
2022-10-22T17:30:22.033Z,15.10
2022-10-22T17:32:51.456Z,15.06
2022-10-22T17:35:18.008Z,15.00
2022-10-22T17:37:44.595Z,15.01
2022-10-22T17:40:11.263Z,14.94
2022-10-22T17:42:37.665Z,14.85
2022-10-22T17:45:04.369Z,14.79
2022-10-22T17:47:30.788Z,14.74
2022-10-22T17:49:57.218Z,14.68
2022-10-22T17:52:23.645Z,14.65
2022-10-22T17:54:50.043Z,14.59
2022-10-22T17:57:16.454Z,14.57
2022-10-22T17:59:42.856Z,14.57
2022-10-22T18:02:16.629Z,14.59
2022-10-22T18:04:43.005Z,14.59
2022-10-22T18:07:09.418Z,14.58
2022-10-22T18:09:35.823Z,14.55
2022-10-22T18:12:02.222Z,14.61
2022-10-22T18:14:28.650Z,14.59
2022-10-22T18:16:55.036Z,14.62
2022-10-22T18:19:21.877Z,14.58
2022-10-22T18:21:48.276Z,14.58
2022-10-22T18:24:14.948Z,14.63
2022-10-22T18:26:41.758Z,14.61
2022-10-22T18:29:09.025Z,14.58
2022-10-22T18:31:36.662Z,14.57
2022-10-22T18:34:03.071Z,14.56
2022-10-22T18:36:29.460Z,14.59
2022-10-22T18:38:59.832Z,14.64
2022-10-22T18:41:26.503Z,14.66
2022-10-22T18:43:53.733Z,14.61
2022-10-22T18:46:20.245Z,14.60
2022-10-22T18:48:46.731Z,14.59
2022-10-22T18:51:13.822Z,14.58
2022-10-22T18:53:40.307Z,14.57
2022-10-22T18:56:08.278Z,14.53
2022-10-22T18:58:41.408Z,14.50
2022-10-22T19:01:09.337Z,14.45
2022-10-22T19:03:35.783Z,14.42
2022-10-22T19:06:02.189Z,14.42
2022-10-22T19:08:28.565Z,14.40
2022-10-22T19:10:55.055Z,14.49
2022-10-22T19:13:21.516Z,14.43
2022-10-22T19:15:48.171Z,14.38
2022-10-22T19:18:14.550Z,14.43
2022-10-22T19:20:41.157Z,14.32
2022-10-22T19:23:07.552Z,14.25
2022-10-22T19:25:34.604Z,14.20
2022-10-22T19:28:00.977Z,14.14
2022-10-22T19:30:27.385Z,14.06
2022-10-22T19:32:53.763Z,14.01
2022-10-22T19:35:20.163Z,14.02
2022-10-22T19:37:48.362Z,14.05
2022-10-22T19:40:15.150Z,14.10
2022-10-22T19:42:41.872Z,14.11
2022-10-22T19:45:08.923Z,14.11
2022-10-22T19:47:35.291Z,14.07
2022-10-22T19:50:01.671Z,14.06
2022-10-22T19:52:30.838Z,14.00
2022-10-22T19:54:57.233Z,13.99
2022-10-22T19:57:23.648Z,13.97
2022-10-22T19:59:50.048Z,13.93
2022-10-22T20:02:17.184Z,13.88
2022-10-22T20:04:47.925Z,13.84
2022-10-22T20:07:16.433Z,13.84
2022-10-22T20:09:42.830Z,13.84
2022-10-22T20:12:09.229Z,13.84
2022-10-22T20:14:35.594Z,13.80
2022-10-22T20:17:02.003Z,13.80
2022-10-22T20:19:28.384Z,13.75
2022-10-22T20:21:54.832Z,13.74
2022-10-22T20:24:21.295Z,13.69
2022-10-22T20:26:47.752Z,13.61
2022-10-22T20:29:14.267Z,13.60
2022-10-22T20:31:41.069Z,13.56
2022-10-22T20:34:07.452Z,13.54
2022-10-22T20:36:33.842Z,13.56
2022-10-22T20:39:01.956Z,13.54
2022-10-22T20:41:28.382Z,13.49
2022-10-22T20:43:55.017Z,13.44
2022-10-22T20:46:23.403Z,13.36
2022-10-22T20:49:04.403Z,13.28
2022-10-22T20:51:30.898Z,13.23
2022-10-22T20:53:57.381Z,13.24
2022-10-22T20:56:23.905Z,13.20
2022-10-22T20:58:50.489Z,13.16
2022-10-22T21:01:20.237Z,13.14
2022-10-22T21:03:51.401Z,13.11
2022-10-22T21:06:18.706Z,13.02
2022-10-22T21:08:45.171Z,13.01
2022-10-22T21:11:11.579Z,13.00
2022-10-22T21:13:38.077Z,13.01
2022-10-22T21:16:09.352Z,13.03
2022-10-22T21:18:35.974Z,13.03
2022-10-22T21:21:04.343Z,13.00
2022-10-22T21:23:31.351Z,12.98
2022-10-22T21:25:57.821Z,12.99
2022-10-22T21:28:24.457Z,12.94
2022-10-22T21:30:52.949Z,12.95
2022-10-22T21:33:19.702Z,12.93
2022-10-22T21:35:55.466Z,12.88
2022-10-22T21:38:23.644Z,12.83
2022-10-22T21:40:50.096Z,12.78
2022-10-22T21:43:17.714Z,12.75
2022-10-22T21:45:44.121Z,12.71
2022-10-22T21:48:12.157Z,12.69
2022-10-22T21:50:39.810Z,12.67
2022-10-22T21:53:06.638Z,12.65
2022-10-22T21:55:37.407Z,12.66
2022-10-22T21:58:05.144Z,12.64
2022-10-22T22:00:31.510Z,12.71
2022-10-22T22:02:57.909Z,12.72
2022-10-22T22:05:24.345Z,12.74
2022-10-22T22:07:50.788Z,12.73
2022-10-22T22:10:17.325Z,12.68
2022-10-22T22:12:44.022Z,12.63
2022-10-22T22:15:11.044Z,12.63
2022-10-22T22:17:37.454Z,12.61
2022-10-22T22:20:04.153Z,12.55
2022-10-22T22:22:30.515Z,12.52
2022-10-22T22:24:56.951Z,12.49
2022-10-22T22:27:23.326Z,12.45
2022-10-22T22:29:49.726Z,12.43
2022-10-22T22:32:16.109Z,12.39
2022-10-22T22:34:42.514Z,12.37
2022-10-22T22:37:10.267Z,12.35
2022-10-22T22:39:37.737Z,12.34
2022-10-22T22:42:04.181Z,12.30
2022-10-22T22:44:30.572Z,12.29
2022-10-22T22:46:56.967Z,12.25
2022-10-22T22:49:23.359Z,12.23
2022-10-22T22:51:49.727Z,12.19
2022-10-22T22:54:16.109Z,12.19
2022-10-22T22:56:42.547Z,12.18
2022-10-22T22:59:10.106Z,12.15
2022-10-22T23:01:37.631Z,12.11
2022-10-22T23:04:10.700Z,12.06
2022-10-22T23:06:37.146Z,12.03
2022-10-22T23:09:05.404Z,12.00
2022-10-22T23:11:32.300Z,11.99
2022-10-22T23:13:59.989Z,11.95
2022-10-22T23:16:28.582Z,11.95
2022-10-22T23:18:55.085Z,11.92
2022-10-22T23:21:24.162Z,11.98
2022-10-22T23:23:53.335Z,11.99
2022-10-22T23:26:22.078Z,12.00
2022-10-22T23:28:48.524Z,11.98
2022-10-22T23:31:17.580Z,11.94
2022-10-22T23:33:44.130Z,11.94
2022-10-22T23:36:10.570Z,11.95
2022-10-22T23:38:37.596Z,11.99
2022-10-22T23:41:04.355Z,12.05
2022-10-22T23:43:30.837Z,12.10
2022-10-22T23:45:57.285Z,12.16
2022-10-22T23:48:23.809Z,12.17
2022-10-22T23:50:50.313Z,12.19
2022-10-22T23:53:16.769Z,12.20
2022-10-22T23:55:43.462Z,12.17
2022-10-22T23:58:10.683Z,12.14
